Time;durP1;ratioP1;P1;durP2;ratioP2;P2;SDS_P1;SDS_P2;PMS_P1;PMS_P2;Temp;Humidity;BMP_temperature;BMP_pressure;BME280_temperature;BME280_humidity;BME280_pressure;Samples;Min_cycle;Max_cycle;Signal;HPM_P1;HPM_P2
2023/01/05 00:01:17;;;;;;;0.00;0.00;;;;;;;11.29;72.66;101033.31;7354187;19;20006;-59
2023/01/05 00:03:42;;;;;;;0.10;0.10;;;;;;;11.32;72.63;101020.19;7353280;19;20017;-59
2023/01/05 00:06:14;;;;;;;0.10;0.10;;;;;;;11.32;72.66;101015.81;7350053;19;20048;-59
2023/01/05 00:08:40;;;;;;;0.10;0.10;;;;;;;11.29;73.12;101013.25;7356203;19;20021;-59
2023/01/05 00:22:31;;;;;;;0.10;0.10;;;;;;;11.28;73.00;101005.44;7362429;19;20018;-59
2023/01/05 00:25:06;;;;;;;0.00;0.00;;;;;;;11.25;73.44;101005.50;7259041;19;2004650;-59
2023/01/05 00:27:32;;;;;;;0.10;0.10;;;;;;;11.24;73.53;101003.78;7356497;19;20558;-59
2023/01/05 00:29:58;;;;;;;0.00;0.00;;;;;;;11.24;73.43;101014.22;7358906;19;20017;-57
2023/01/05 00:32:25;;;;;;;0.00;0.00;;;;;;;11.24;73.35;101014.22;7357093;19;20007;-57
2023/01/05 00:34:54;;;;;;;0.10;0.10;;;;;;;11.11;73.39;100992.72;7360757;19;20525;-59
2023/01/05 00:37:21;;;;;;;0.10;0.10;;;;;;;11.20;73.67;101012.56;7357108;19;20049;-59
2023/01/05 00:39:46;;;;;;;0.10;0.10;;;;;;;11.22;73.64;101021.25;7359740;19;20011;-59
2023/01/05 00:42:12;;;;;;;0.00;0.00;;;;;;;11.23;73.80;101022.97;7351331;19;20026;-59
2023/01/05 00:44:37;;;;;;;0.10;0.10;;;;;;;11.22;73.83;101018.66;7358783;19;20020;-59
2023/01/05 00:47:02;;;;;;;0.10;0.10;;;;;;;11.21;74.13;101017.78;7359313;19;20070;-59
2023/01/05 00:49:28;;;;;;;0.10;0.10;;;;;;;11.22;73.65;101014.28;7357451;19;20015;-59
2023/01/05 00:51:53;;;;;;;0.03;0.03;;;;;;;11.22;73.98;101011.66;7360423;19;20050;-59
2023/01/05 00:54:19;;;;;;;0.10;0.10;;;;;;;11.23;73.82;101018.59;7358081;19;20022;-59
2023/01/05 00:56:45;;;;;;;0.10;0.10;;;;;;;11.25;74.20;101018.56;7358752;19;20106;-58
2023/01/05 00:59:11;;;;;;;0.10;0.10;;;;;;;11.27;73.85;101027.25;7358698;19;20107;-58
2023/01/05 01:01:36;;;;;;;0.10;0.10;;;;;;;11.28;74.10;101026.34;7360124;19;20022;-59
2023/01/05 01:04:01;;;;;;;0.08;0.08;;;;;;;11.24;73.85;101019.47;7356861;19;20463;-59
2023/01/05 01:06:27;;;;;;;0.10;0.10;;;;;;;11.31;73.93;101027.16;7359105;19;20011;-59
2023/01/05 01:08:52;;;;;;;0.10;0.10;;;;;;;11.33;73.69;101030.59;7361160;19;20062;-59
2023/01/05 01:11:18;;;;;;;0.10;0.10;;;;;;;11.35;74.33;101027.94;7366236;19;20014;-59
2023/01/05 01:13:44;;;;;;;0.10;0.10;;;;;;;11.36;74.37;101025.31;7366053;19;20504;-59
2023/01/05 01:16:14;;;;;;;0.10;0.10;;;;;;;11.39;74.26;101021.75;7365011;19;20541;-59
2023/01/05 01:18:40;;;;;;;0.00;0.00;;;;;;;11.38;74.47;101031.38;7361034;19;20046;-59
2023/01/05 01:21:07;;;;;;;0.08;0.08;;;;;;;11.39;73.98;101032.22;7365663;19;20030;-58
2023/01/05 01:23:33;;;;;;;0.10;0.10;;;;;;;11.40;74.42;101031.31;7360828;19;20014;-59
2023/01/05 01:26:02;;;;;;;0.10;0.10;;;;;;;11.35;73.99;101017.47;7365406;19;20014;-59
2023/01/05 01:28:28;;;;;;;0.00;0.00;;;;;;;11.43;74.31;101031.28;7363498;19;20886;-59
2023/01/05 01:30:53;;;;;;;0.10;0.10;;;;;;;11.39;73.88;101024.38;7366383;19;20017;-59
2023/01/05 01:33:19;;;;;;;0.10;0.10;;;;;;;11.37;74.38;101016.56;7362473;19;20021;-57
2023/01/05 01:35:44;;;;;;;0.10;0.10;;;;;;;11.48;74.57;101034.66;7366257;19;20019;-59
2023/01/05 01:38:09;;;;;;;0.08;0.08;;;;;;;11.48;74.39;101029.41;7353230;19;20030;-60
2023/01/05 01:40:44;;;;;;;0.00;0.00;;;;;;;11.54;74.24;101034.50;7364235;19;20838;-59
2023/01/05 01:43:36;;;;;;;0.10;0.10;;;;;;;11.55;73.88;101025.75;7358210;19;20073;-59
2023/01/05 01:46:01;;;;;;;0.10;0.10;;;;;;;11.55;74.31;101024.91;7262590;19;2004364;-59
2023/01/05 01:48:27;;;;;;;0.00;0.00;;;;;;;11.55;74.39;101025.75;7362341;19;20741;-59
2023/01/05 01:50:54;;;;;;;0.10;0.10;;;;;;;11.56;74.03;101032.75;7364969;19;20022;-59
2023/01/05 01:53:28;;;;;;;0.00;0.00;;;;;;;11.59;74.26;101037.03;7359774;19;21176;-59
2023/01/05 01:55:58;;;;;;;0.05;0.05;;;;;;;11.58;74.12;101024.84;7355720;19;20006;-59
2023/01/05 01:58:27;;;;;;;0.00;0.00;;;;;;;11.58;74.28;101030.94;7361764;19;20014;-59
2023/01/05 02:00:53;;;;;;;0.10;0.10;;;;;;;11.58;74.20;101033.56;7361747;19;20752;-59
2023/01/05 02:03:19;;;;;;;0.10;0.10;;;;;;;11.56;74.32;101032.75;7362586;19;20018;-59
2023/01/05 02:05:44;;;;;;;0.10;0.10;;;;;;;11.54;74.29;101028.44;7362228;19;20023;-58
2023/01/05 02:08:12;;;;;;;0.03;0.03;;;;;;;11.54;73.96;101026.66;7357667;19;20017;-59
2023/01/05 02:11:08;;;;;;;0.10;0.10;;;;;;;11.54;73.74;101023.19;7364348;19;20022;-59
2023/01/05 02:13:43;;;;;;;0.10;0.10;;;;;;;11.50;74.07;101022.38;7262391;19;2004254;-59
2023/01/05 02:16:08;;;;;;;0.10;0.10;;;;;;;11.47;74.22;101017.25;7360463;19;20085;-59
2023/01/05 02:18:57;;;;;;;0.10;0.10;;;;;;;11.43;74.42;101026.91;7363521;19;20086;-59
2023/01/05 02:21:38;;;;;;;0.10;0.10;;;;;;;11.43;74.32;101026.03;7259896;19;2005767;-59
2023/01/05 02:24:38;;;;;;;0.10;0.10;;;;;;;11.42;73.81;101019.09;7364154;19;20021;-58
2023/01/05 02:27:41;;;;;;;0.10;0.10;;;;;;;11.38;73.55;101028.75;7261818;19;2004148;-59
2023/01/05 02:30:29;;;;;;;0.10;0.10;;;;;;;11.32;74.18;101026.25;7261162;19;2004119;-59
2023/01/05 02:33:39;;;;;;;0.00;0.00;;;;;;;11.31;73.95;101027.16;7360980;19;20078;-58
2023/01/05 02:36:13;;;;;;;0.00;0.00;;;;;;;11.25;73.97;101022.03;7255297;19;2004221;-59
2023/01/05 02:38:56;;;;;;;0.10;0.10;;;;;;;11.25;74.11;101027.25;7364923;19;20364;-60
2023/01/05 02:41:37;;;;;;;0.05;0.05;;;;;;;11.17;74.19;101006.53;7361105;19;20010;-59
2023/01/05 02:44:06;;;;;;;0.10;0.10;;;;;;;11.13;74.47;101007.47;7362730;19;20081;-59
2023/01/05 02:46:31;;;;;;;0.10;0.10;;;;;;;11.16;74.14;101012.66;7362345;19;20030;-59
2023/01/05 02:48:58;;;;;;;0.10;0.10;;;;;;;11.17;74.75;101009.13;7361187;19;20423;-59
2023/01/05 02:51:39;;;;;;;0.00;0.00;;;;;;;11.20;74.43;101017.78;7361884;19;20025;-58
2023/01/05 02:54:17;;;;;;;0.10;0.10;;;;;;;11.18;74.12;101012.59;7360917;19;21071;-59
2023/01/05 02:56:57;;;;;;;0.00;0.00;;;;;;;11.17;74.54;101013.50;7361589;19;20010;-59
2023/01/05 02:59:39;;;;;;;0.03;0.03;;;;;;;11.20;74.36;101002.13;7350941;19;20015;-59
2023/01/05 03:02:19;;;;;;;0.00;0.00;;;;;;;11.22;74.41;100998.59;7359862;19;20011;-59
2023/01/05 03:04:50;;;;;;;0.10;0.10;;;;;;;11.21;74.72;100990.78;7361462;19;20045;-59
2023/01/05 03:07:21;;;;;;;0.00;0.00;;;;;;;11.13;74.51;100976.09;7360555;19;20478;-59
2023/01/05 03:09:47;;;;;;;0.10;0.10;;;;;;;11.16;75.02;100973.44;7354583;19;20094;-59
2023/01/05 03:15:07;;;;;;;0.08;0.08;;;;;;;11.25;74.84;100985.44;7256559;19;2004754;-59
2023/01/05 03:17:43;;;;;;;0.05;0.05;;;;;;;11.16;74.86;100970.81;7361765;19;20010;-59
2023/01/05 03:20:12;;;;;;;0.08;0.08;;;;;;;11.28;74.88;100981.91;7359619;19;20014;-59
2023/01/05 03:36:48;;;;;;;0.10;0.10;;;;;;;11.39;75.16;100961.63;7359027;19;20034;-59
2023/01/05 03:39:15;;;;;;;0.10;0.10;;;;;;;11.38;74.92;100965.13;7361579;19;20011;-59
2023/01/05 03:41:41;;;;;;;0.00;0.00;;;;;;;11.38;74.94;100955.53;7359943;19;20003;-59
2023/01/05 03:44:07;;;;;;;0.05;0.05;;;;;;;11.40;74.85;100955.50;7354968;19;20624;-59
2023/01/05 03:46:33;;;;;;;0.10;0.10;;;;;;;11.40;74.90;100943.31;7355913;19;20011;-59
2023/01/05 03:48:58;;;;;;;0.10;0.10;;;;;;;11.41;74.73;100944.16;7361937;19;20622;-59
2023/01/05 03:51:23;;;;;;;0.10;0.10;;;;;;;11.40;75.16;100942.41;7356316;19;20014;-59
2023/01/05 03:53:49;;;;;;;0.03;0.03;;;;;;;11.40;74.91;100926.72;7361092;19;20002;-59
2023/01/05 03:56:14;;;;;;;0.00;0.00;;;;;;;11.42;74.88;100917.13;7360829;19;20018;-59
2023/01/05 03:58:40;;;;;;;0.10;0.10;;;;;;;11.40;74.83;100909.31;7359269;19;20006;-59
2023/01/05 04:01:07;;;;;;;0.10;0.10;;;;;;;11.42;75.00;100914.50;7358826;19;20006;-59
2023/01/05 04:03:32;;;;;;;0.08;0.08;;;;;;;11.35;75.18;100903.34;7350163;19;20599;-59
2023/01/05 04:05:58;;;;;;;0.03;0.03;;;;;;;11.43;74.85;100900.53;7349420;19;20073;-59
2023/01/05 04:08:24;;;;;;;0.10;0.10;;;;;;;11.43;74.78;100901.38;7358793;19;20903;-59
2023/01/05 04:10:52;;;;;;;0.10;0.10;;;;;;;11.30;75.20;100872.94;7359492;19;20015;-59
2023/01/05 04:13:17;;;;;;;0.08;0.08;;;;;;;11.36;74.85;100881.50;7360279;19;20010;-59
2023/01/05 04:15:43;;;;;;;0.10;0.10;;;;;;;11.45;75.35;100883.03;7361568;19;20030;-59
2023/01/05 04:18:08;;;;;;;0.00;0.00;;;;;;;11.46;75.26;100890.00;7359151;19;20006;-59
2023/01/05 04:20:34;;;;;;;0.10;0.10;;;;;;;11.46;74.94;100883.91;7339928;19;20018;-59
2023/01/05 04:22:59;;;;;;;0.10;0.10;;;;;;;11.48;74.96;100882.13;7353593;19;20014;-59
2023/01/05 04:25:24;;;;;;;0.00;0.00;;;;;;;11.46;75.00;100879.53;7358672;19;20015;-59
2023/01/05 04:27:50;;;;;;;0.10;0.10;;;;;;;11.49;75.28;100882.06;7359156;19;20022;-59
2023/01/05 04:30:15;;;;;;;0.10;0.10;;;;;;;11.49;74.90;100882.06;7356731;19;20815;-59
2023/01/05 04:32:41;;;;;;;0.03;0.03;;;;;;;11.49;75.21;100889.91;7361032;19;20006;-59
2023/01/05 04:35:06;;;;;;;0.03;0.03;;;;;;;11.45;75.00;100869.97;7355974;19;20010;-59
2023/01/05 04:37:32;;;;;;;0.10;0.10;;;;;;;11.50;74.89;100870.72;7357599;19;20026;-59
2023/01/05 04:39:57;;;;;;;0.00;0.00;;;;;;;11.50;74.80;100865.47;7354580;19;20007;-59
2023/01/05 04:42:23;;;;;;;0.00;0.00;;;;;;;11.52;74.69;100874.16;7359520;19;20021;-59
2023/01/05 04:44:49;;;;;;;0.10;0.10;;;;;;;11.44;74.77;100856.03;7363247;19;20041;-60
2023/01/05 04:47:14;;;;;;;0.10;0.10;;;;;;;11.55;74.63;100868.84;7363096;19;20018;-59
2023/01/05 04:49:40;;;;;;;0.00;0.00;;;;;;;11.55;74.51;100871.47;7363591;19;20021;-60
2023/01/05 04:52:06;;;;;;;0.00;0.00;;;;;;;11.56;74.32;100865.34;7362361;19;20010;-59
2023/01/05 04:54:31;;;;;;;0.10;0.10;;;;;;;11.56;74.21;100865.34;7362724;19;20015;-59
2023/01/05 04:56:57;;;;;;;0.05;0.05;;;;;;;11.58;74.51;100867.94;7366723;19;20007;-58
2023/01/05 04:59:22;;;;;;;0.10;0.10;;;;;;;11.60;74.35;100872.19;7365986;19;20010;-59
2023/01/05 05:01:48;;;;;;;0.10;0.10;;;;;;;11.61;74.19;100873.09;7364547;19;20014;-59
2023/01/05 05:04:13;;;;;;;0.00;0.00;;;;;;;11.63;74.30;100872.13;7366524;19;20127;-59
2023/01/05 05:06:39;;;;;;;0.03;0.03;;;;;;;11.64;74.05;100855.53;7366111;19;20021;-59
2023/01/05 05:09:04;;;;;;;0.10;0.10;;;;;;;11.65;73.83;100852.03;7366532;19;20041;-57
2023/01/05 05:11:30;;;;;;;0.00;0.00;;;;;;;11.58;73.94;100837.41;7364194;19;20014;-59
2023/01/05 05:13:55;;;;;;;0.10;0.10;;;;;;;11.67;73.75;100850.25;7366906;19;20090;-59
2023/01/05 05:16:21;;;;;;;0.10;0.10;;;;;;;11.68;73.76;100849.34;7362900;19;20015;-59
2023/01/05 05:18:46;;;;;;;0.03;0.03;;;;;;;11.68;74.09;100838.88;7367578;19;20011;-59
2023/01/05 05:21:11;;;;;;;0.00;0.00;;;;;;;11.69;73.77;100839.75;7364939;19;20784;-59
2023/01/05 05:23:37;;;;;;;0.10;0.10;;;;;;;11.66;74.15;100830.22;7361773;19;20018;-58
2023/01/05 05:26:02;;;;;;;0.10;0.10;;;;;;;11.71;74.00;100835.34;7364331;19;20014;-59
2023/01/05 05:28:28;;;;;;;0.10;0.10;;;;;;;11.67;74.00;100824.09;7365995;19;20010;-59
2023/01/05 05:30:55;;;;;;;0.10;0.10;;;;;;;11.64;74.07;100816.31;7364253;19;20018;-59
2023/01/05 05:33:21;;;;;;;0.05;0.05;;;;;;;11.74;73.69;100826.53;7365734;19;20002;-59
2023/01/05 05:35:46;;;;;;;0.10;0.10;;;;;;;11.75;73.65;100823.03;7362650;19;20049;-59
2023/01/05 05:38:12;;;;;;;0.10;0.10;;;;;;;11.76;73.95;100824.72;7362085;19;20571;-59
2023/01/05 05:40:37;;;;;;;0.10;0.10;;;;;;;11.74;73.95;100811.72;7365317;19;20025;-59
2023/01/05 05:43:02;;;;;;;0.10;0.10;;;;;;;11.74;73.87;100822.16;7357979;19;20006;-59
2023/01/05 05:45:28;;;;;;;0.10;0.10;;;;;;;11.75;74.01;100804.72;7366114;19;20028;-59
2023/01/05 05:47:53;;;;;;;0.10;0.10;;;;;;;11.74;73.86;100800.38;7363086;19;20463;-59
2023/01/05 05:50:18;;;;;;;0.10;0.10;;;;;;;11.72;74.05;100789.97;7364562;19;20070;-58
2023/01/05 05:52:44;;;;;;;0.10;0.10;;;;;;;11.72;74.35;100787.34;7357418;19;20067;-59
2023/01/05 05:55:09;;;;;;;0.10;0.10;;;;;;;11.66;74.26;100772.69;7363573;19;20837;-59
2023/01/05 05:57:35;;;;;;;0.00;0.00;;;;;;;11.67;74.24;100779.63;7363231;19;20015;-59
2023/01/05 06:00:00;;;;;;;0.10;0.10;;;;;;;11.62;74.38;100771.03;7365163;19;20019;-59
2023/01/05 06:02:26;;;;;;;0.00;0.00;;;;;;;11.62;74.36;100778.88;7362039;19;20018;-60
2023/01/05 06:04:51;;;;;;;0.10;0.10;;;;;;;11.58;74.23;100773.75;7365012;19;20014;-59
2023/01/05 06:07:16;;;;;;;0.10;0.10;;;;;;;11.58;74.72;100774.63;7364506;19;20010;-59
2023/01/05 06:09:42;;;;;;;0.10;0.10;;;;;;;11.53;74.58;100766.03;7357689;19;20078;-59
2023/01/05 06:12:07;;;;;;;0.10;0.10;;;;;;;11.55;74.46;100774.69;7365466;19;20046;-59
2023/01/05 06:14:33;;;;;;;0.08;0.08;;;;;;;11.54;74.58;100778.22;7361425;19;20802;-59
2023/01/05 06:16:59;;;;;;;0.10;0.10;;;;;;;11.51;75.09;100778.31;7362099;19;20014;-58
2023/01/05 06:19:25;;;;;;;0.00;0.00;;;;;;;11.52;74.76;100769.56;7359769;19;20017;-59
2023/01/05 06:21:50;;;;;;;0.10;0.10;;;;;;;11.51;74.70;100773.06;7363845;19;20018;-59
2023/01/05 06:24:15;;;;;;;0.10;0.10;;;;;;;11.50;75.18;100767.84;7361780;19;20018;-59
2023/01/05 06:26:41;;;;;;;0.10;0.10;;;;;;;11.51;75.04;100767.84;7365293;19;20067;-59
2023/01/05 06:29:06;;;;;;;0.10;0.10;;;;;;;11.47;74.85;100760.97;7361674;19;20023;-59
2023/01/05 06:31:32;;;;;;;0.10;0.10;;;;;;;11.51;75.26;100752.16;7363319;19;20014;-59
2023/01/05 06:33:57;;;;;;;0.00;0.00;;;;;;;11.52;74.75;100753.00;7365219;19;20010;-59
2023/01/05 06:36:22;;;;;;;0.10;0.10;;;;;;;11.53;74.93;100739.88;7363352;19;20549;-59
2023/01/05 06:38:48;;;;;;;0.10;0.10;;;;;;;11.53;74.94;100745.13;7362043;19;20534;-59
2023/01/05 06:41:13;;;;;;;0.10;0.10;;;;;;;11.52;74.98;100738.19;7363499;19;20050;-59
2023/01/05 06:43:39;;;;;;;0.10;0.10;;;;;;;11.51;75.44;100741.69;7361691;19;20025;-59
2023/01/05 06:46:04;;;;;;;0.10;0.10;;;;;;;11.52;75.30;100739.94;7361173;19;20371;-59
2023/01/05 06:48:29;;;;;;;0.00;0.00;;;;;;;11.54;75.48;100744.22;7361824;19;20091;-59
2023/01/05 06:50:55;;;;;;;0.10;0.10;;;;;;;11.56;75.20;100731.13;7361417;19;20073;-59
2023/01/05 06:53:20;;;;;;;0.10;0.10;;;;;;;11.56;75.31;100734.59;7362724;19;20628;-59
2023/01/05 06:55:46;;;;;;;0.10;0.10;;;;;;;11.58;75.10;100731.91;7360986;19;20580;-59
2023/01/05 06:58:11;;;;;;;0.00;0.00;;;;;;;11.60;75.40;100736.19;7351183;19;20013;-59
2023/01/05 07:00:37;;;;;;;0.10;0.10;;;;;;;11.62;75.07;100734.41;7362032;19;20017;-59
2023/01/05 07:03:02;;;;;;;0.10;0.10;;;;;;;11.64;75.06;100726.53;7359726;19;20007;-59
2023/01/05 07:05:27;;;;;;;0.05;0.05;;;;;;;11.66;75.27;100725.59;7358659;19;20032;-58
2023/01/05 07:07:53;;;;;;;0.10;0.10;;;;;;;11.67;75.26;100716.84;7361750;19;20505;-59
2023/01/05 07:10:19;;;;;;;0.00;0.00;;;;;;;11.74;75.14;100719.28;7362450;19;20017;-59
2023/01/05 07:12:44;;;;;;;0.10;0.10;;;;;;;11.75;75.34;100705.31;7355575;19;20022;-59
2023/01/05 07:15:10;;;;;;;0.00;0.00;;;;;;;11.81;75.32;100712.97;7360839;19;20020;-58
2023/01/05 07:17:35;;;;;;;0.10;0.10;;;;;;;11.83;75.37;100706.00;7357535;19;20393;-59
2023/01/05 07:20:01;;;;;;;0.10;0.10;;;;;;;11.86;75.66;100711.13;7363635;19;20010;-59
2023/01/05 07:22:29;;;;;;;0.10;0.10;;;;;;;11.83;75.67;100695.53;7358233;19;20454;-59
2023/01/05 07:24:55;;;;;;;0.00;0.00;;;;;;;11.92;75.23;100695.28;7356235;19;20022;-57
2023/01/05 07:27:21;;;;;;;0.10;0.10;;;;;;;11.94;75.42;100693.47;7358789;19;20021;-59
2023/01/05 07:29:46;;;;;;;0.10;0.10;;;;;;;12.00;75.25;100695.03;7357581;19;20639;-59
2023/01/05 07:32:12;;;;;;;0.10;0.10;;;;;;;12.02;75.62;100691.50;7354322;19;20002;-59
2023/01/05 07:34:38;;;;;;;0.05;0.05;;;;;;;12.05;75.53;100691.38;7358778;19;20474;-59
2023/01/05 07:37:03;;;;;;;0.10;0.10;;;;;;;12.07;75.67;100683.50;7358734;19;20010;-59
2023/01/05 07:39:28;;;;;;;0.10;0.10;;;;;;;12.12;75.50;100684.22;7356326;19;20018;-59
2023/01/05 07:41:54;;;;;;;0.10;0.10;;;;;;;12.14;75.16;100688.50;7362550;19;20014;-59
2023/01/05 07:44:19;;;;;;;0.00;0.00;;;;;;;12.17;75.09;100677.09;7354975;19;20011;-59
2023/01/05 07:46:45;;;;;;;0.00;0.00;;;;;;;12.19;75.33;100677.91;7359520;19;20006;-59
2023/01/05 07:49:10;;;;;;;0.10;0.10;;;;;;;12.24;75.12;100685.63;7357786;19;20017;-59
2023/01/05 07:51:36;;;;;;;0.10;0.10;;;;;;;12.26;75.12;100678.56;7343523;19;20010;-60
2023/01/05 07:54:01;;;;;;;0.10;0.10;;;;;;;12.31;75.36;100666.19;7363387;19;20044;-59
2023/01/05 07:56:26;;;;;;;0.10;0.10;;;;;;;12.33;75.08;100680.13;7359158;19;20011;-60
2023/01/05 07:58:52;;;;;;;0.00;0.00;;;;;;;12.34;75.41;100687.06;7357824;19;20021;-59
2023/01/05 08:01:17;;;;;;;0.10;0.10;;;;;;;12.35;75.05;100668.69;7359574;19;20048;-59
2023/01/05 08:03:43;;;;;;;0.03;0.03;;;;;;;12.38;74.97;100672.97;7360382;19;20014;-59
2023/01/05 08:06:14;;;;;;;0.00;0.00;;;;;;;12.41;75.30;100662.38;7359862;19;20030;-59
2023/01/05 08:08:40;;;;;;;0.10;0.10;;;;;;;12.43;75.07;100660.59;7361470;19;20395;-59
2023/01/05 08:11:07;;;;;;;0.00;0.00;;;;;;;12.45;74.94;100659.63;7358075;19;20014;-59
2023/01/05 08:16:18;;;;;;;0.10;0.10;;;;;;;12.51;75.11;100660.34;7351095;19;20139;-59
2023/01/05 08:18:43;;;;;;;0.10;0.10;;;;;;;12.53;74.93;100662.03;7351149;19;20038;-59
2023/01/05 08:21:09;;;;;;;0.00;0.00;;;;;;;12.48;75.33;100642.97;7354855;19;20007;-59
2023/01/05 08:23:35;;;;;;;0.10;0.10;;;;;;;12.56;75.20;100640.94;7359818;19;20006;-59
2023/01/05 08:26:05;;;;;;;0.00;0.00;;;;;;;12.61;75.24;100659.16;7360202;19;20465;-59
2023/01/05 08:28:30;;;;;;;0.05;0.05;;;;;;;12.63;75.14;100678.31;7359470;19;20015;-59
2023/01/05 08:31:00;;;;;;;0.10;0.10;;;;;;;12.66;75.06;100678.19;7360717;19;20011;-59
2023/01/05 08:33:26;;;;;;;0.10;0.10;;;;;;;12.62;75.06;100660.84;7360319;19;20373;-59
2023/01/05 08:35:52;;;;;;;0.10;0.10;;;;;;;12.67;75.10;100659.84;7356598;19;22381;-59
2023/01/05 08:38:20;;;;;;;0.10;0.10;;;;;;;12.72;74.95;100652.69;7359599;19;20011;-56
2023/01/05 08:40:45;;;;;;;0.00;0.00;;;;;;;12.70;74.99;100638.75;7357430;19;20011;-59
2023/01/05 08:43:11;;;;;;;0.05;0.05;;;;;;;12.72;74.77;100642.19;7358953;19;20022;-58
2023/01/05 08:45:36;;;;;;;0.00;0.00;;;;;;;12.78;75.00;100637.66;7357697;19;20934;-59
2023/01/05 08:48:01;;;;;;;0.10;0.10;;;;;;;12.81;74.98;100642.78;7358426;19;20014;-59
2023/01/05 08:50:27;;;;;;;0.10;0.10;;;;;;;12.78;74.73;100635.03;7360162;19;20010;-59
2023/01/05 08:52:52;;;;;;;0.10;0.10;;;;;;;12.84;74.66;100634.84;7351721;19;20509;-59
2023/01/05 08:55:18;;;;;;;0.10;0.10;;;;;;;12.87;74.38;100645.19;7351358;19;20046;-59
2023/01/05 08:57:43;;;;;;;0.10;0.10;;;;;;;12.84;74.46;100638.31;7359210;19;20014;-57
2023/01/05 09:00:09;;;;;;;0.10;0.10;;;;;;;12.88;74.72;100641.69;7356428;19;20025;-60
2023/01/05 09:02:34;;;;;;;0.00;0.00;;;;;;;12.90;74.72;100639.88;7359570;19;20752;-59
2023/01/05 09:05:00;;;;;;;0.10;0.10;;;;;;;12.92;74.39;100649.38;7360780;19;20010;-60
2023/01/05 09:07:27;;;;;;;0.00;0.00;;;;;;;12.93;74.46;100638.00;7356473;19;20753;-59
2023/01/05 09:09:52;;;;;;;0.10;0.10;;;;;;;12.94;74.36;100633.63;7359942;19;20033;-58
2023/01/05 09:12:18;;;;;;;0.10;0.10;;;;;;;12.94;74.27;100631.00;7360952;19;20006;-59
2023/01/05 09:14:43;;;;;;;0.10;0.10;;;;;;;12.96;74.15;100631.78;7356779;19;20042;-60
2023/01/05 09:17:08;;;;;;;0.10;0.10;;;;;;;12.98;74.20;100630.84;7359598;19;20013;-59
2023/01/05 09:19:34;;;;;;;0.10;0.10;;;;;;;12.98;73.98;100624.75;7357147;19;21806;-59
2023/01/05 09:22:00;;;;;;;0.10;0.10;;;;;;;12.87;74.10;100604.13;7360448;19;20014;-59
2023/01/05 09:24:25;;;;;;;0.10;0.10;;;;;;;13.02;73.92;100626.34;7354128;19;20017;-59
2023/01/05 09:26:50;;;;;;;0.10;0.10;;;;;;;13.05;74.06;100615.75;7359960;19;20023;-60
2023/01/05 09:29:16;;;;;;;0.00;0.00;;;;;;;13.07;73.79;100607.84;7360023;19;20784;-59
2023/01/05 09:31:42;;;;;;;0.10;0.10;;;;;;;13.02;73.88;100597.50;7362943;19;20049;-59
2023/01/05 09:34:08;;;;;;;0.10;0.10;;;;;;;13.13;73.63;100610.28;7366843;19;20024;-58
2023/01/05 09:36:33;;;;;;;0.10;0.10;;;;;;;13.18;73.54;100608.34;7365863;19;20022;-59
2023/01/05 09:38:59;;;;;;;0.10;0.10;;;;;;;13.17;73.53;100602.22;7361809;19;20011;-59
2023/01/05 09:41:35;;;;;;;0.10;0.10;;;;;;;13.23;73.36;100590.72;7365041;19;20007;-59
2023/01/05 09:44:24;;;;;;;0.10;0.10;;;;;;;13.28;73.28;100588.78;7364278;19;20046;-60
2023/01/05 09:46:50;;;;;;;0.10;0.10;;;;;;;13.27;73.01;100573.09;7363637;19;20493;-59
2023/01/05 09:49:20;;;;;;;0.03;0.03;;;;;;;13.24;73.02;100561.81;7359930;19;20515;-58
2023/01/05 09:51:54;;;;;;;0.00;0.00;;;;;;;13.31;72.89;100577.31;7364712;19;20033;-57
2023/01/05 09:54:23;;;;;;;0.00;0.00;;;;;;;13.34;72.75;100571.97;7364381;19;20411;-59
2023/01/05 09:56:49;;;;;;;0.10;0.10;;;;;;;13.31;72.81;100551.09;7366288;19;20013;-59
2023/01/05 09:59:30;;;;;;;0.10;0.10;;;;;;;13.40;73.11;100550.75;7361437;19;20445;-59
2023/01/05 10:01:59;;;;;;;0.10;0.10;;;;;;;13.33;72.62;100541.38;7365336;19;20906;-59
2023/01/05 10:04:28;;;;;;;0.10;0.10;;;;;;;13.31;72.55;100540.59;7363996;19;20392;-59
2023/01/05 10:07:00;;;;;;;0.03;0.03;;;;;;;13.44;72.87;100552.38;7364848;19;20006;-59
2023/01/05 10:09:33;;;;;;;0.10;0.10;;;;;;;13.48;72.71;100543.44;7362676;19;20041;-59
2023/01/05 10:15:06;;;;;;;0.10;0.10;;;;;;;13.49;72.41;100546.03;7263609;19;2004395;-57
2023/01/05 10:17:34;;;;;;;0.00;0.00;;;;;;;13.48;72.82;100548.69;7364524;19;20007;-57
2023/01/05 10:20:00;;;;;;;0.10;0.10;;;;;;;13.44;72.55;100539.25;7363797;19;20034;-59
2023/01/05 10:22:43;;;;;;;0.10;0.10;;;;;;;13.50;72.37;100547.75;7364295;19;20122;-59
2023/01/05 10:25:25;;;;;;;0.00;0.00;;;;;;;13.49;72.02;100535.53;7364352;19;20018;-59
2023/01/05 10:28:14;;;;;;;0.10;0.10;;;;;;;13.53;72.64;100541.50;7365183;19;20377;-59
2023/01/05 10:30:55;;;;;;;0.00;0.00;;;;;;;13.57;71.95;100532.63;7361221;19;20014;-59
2023/01/05 10:34:00;;;;;;;0.10;0.10;;;;;;;13.58;72.08;100517.72;7364076;19;20010;-59
2023/01/05 10:36:44;;;;;;;0.10;0.10;;;;;;;13.53;71.83;100501.31;7259340;19;2004355;-59
2023/01/05 10:39:38;;;;;;;0.10;0.10;;;;;;;13.59;72.11;100515.06;7362025;19;20015;-59
2023/01/05 10:42:22;;;;;;;0.10;0.10;;;;;;;13.61;72.03;100507.97;7264305;19;2004442;-58
2023/01/05 10:44:58;;;;;;;0.10;0.10;;;;;;;13.60;71.56;100506.28;7362853;19;20021;-59
2023/01/05 10:47:26;;;;;;;0.10;0.10;;;;;;;13.56;71.94;100488.09;7362317;19;20118;-58
2023/01/05 10:49:52;;;;;;;0.10;0.10;;;;;;;13.60;71.38;100490.53;7359498;19;20030;-59
2023/01/05 10:52:20;;;;;;;0.10;0.10;;;;;;;13.69;71.65;100498.06;7363157;19;20018;-59
2023/01/05 10:55:00;;;;;;;0.10;0.10;;;;;;;13.76;71.85;100491.63;7365249;19;20099;-59
2023/01/05 10:57:31;;;;;;;0.10;0.10;;;;;;;13.82;71.11;100484.44;7363921;19;20348;-59
2023/01/05 11:00:17;;;;;;;0.08;0.08;;;;;;;13.81;71.19;100467.84;7361121;19;20070;-57
2023/01/05 11:03:07;;;;;;;0.10;0.10;;;;;;;13.96;71.15;100466.38;7361962;19;20029;-59
2023/01/05 11:05:35;;;;;;;0.10;0.10;;;;;;;13.97;71.01;100484.69;7364953;19;20033;-57
2023/01/05 11:08:04;;;;;;;0.10;0.10;;;;;;;13.99;70.56;100466.25;7359973;19;20021;-59
2023/01/05 11:10:34;;;;;;;0.10;0.10;;;;;;;14.01;71.17;100464.41;7362750;19;20093;-57
2023/01/05 11:13:28;;;;;;;0.10;0.10;;;;;;;14.07;70.63;100447.56;7359609;19;20018;-59
2023/01/05 11:16:05;;;;;;;0.10;0.10;;;;;;;14.08;70.10;100444.84;7262220;19;2004278;-59
2023/01/05 11:18:35;;;;;;;0.10;0.10;;;;;;;14.12;70.11;100449.06;7364604;19;20014;-59
2023/01/05 11:21:06;;;;;;;0.10;0.10;;;;;;;14.12;69.79;100428.06;7361618;19;20083;-59
2023/01/05 11:23:41;;;;;;;0.10;0.10;;;;;;;14.19;69.58;100440.03;7363259;19;20017;-59
2023/01/05 11:26:25;;;;;;;0.10;0.10;;;;;;;14.18;69.80;100413.81;7362735;19;20049;-60
2023/01/05 11:29:12;;;;;;;0.10;0.10;;;;;;;14.31;70.07;100429.94;7361607;19;20027;-59
2023/01/05 11:31:41;;;;;;;0.10;0.10;;;;;;;14.32;69.12;100427.22;7357887;19;20018;-59
2023/01/05 11:34:25;;;;;;;0.10;0.10;;;;;;;14.44;68.91;100417.97;7363321;19;20786;-59
2023/01/05 11:37:03;;;;;;;0.10;0.10;;;;;;;14.42;68.32;100411.94;7364574;19;20043;-59
2023/01/05 11:39:41;;;;;;;0.10;0.10;;;;;;;14.46;68.51;100418.75;7359665;19;20021;-59
2023/01/05 11:42:18;;;;;;;0.10;0.10;;;;;;;14.53;68.79;100404.47;7360549;19;20050;-59
2023/01/05 11:44:54;;;;;;;0.10;0.10;;;;;;;14.55;68.54;100397.38;7362350;19;20018;-59
2023/01/05 11:47:29;;;;;;;0.10;0.10;;;;;;;14.50;69.03;100363.44;7360033;19;20677;-59
2023/01/05 11:49:57;;;;;;;0.10;0.10;;;;;;;14.62;68.33;100363.78;7361198;19;20006;-58
2023/01/05 11:52:26;;;;;;;0.10;0.10;;;;;;;14.62;68.26;100367.28;7356639;19;20739;-58
2023/01/05 11:54:51;;;;;;;0.10;0.10;;;;;;;14.65;67.59;100361.00;7361599;19;20015;-59
2023/01/05 11:57:19;;;;;;;0.10;0.10;;;;;;;14.68;67.34;100340.72;7361354;19;20014;-59
2023/01/05 11:59:45;;;;;;;0.10;0.10;;;;;;;14.71;67.78;100342.38;7362206;19;20003;-59
2023/01/05 12:02:29;;;;;;;0.10;0.10;;;;;;;14.69;67.72;100331.91;7358116;19;20005;-59
2023/01/05 12:05:21;;;;;;;0.00;0.00;;;;;;;14.75;67.52;100336.91;7361804;19;20017;-59
2023/01/05 12:07:54;;;;;;;0.00;0.00;;;;;;;14.75;67.38;100331.63;7258155;19;2004556;-59